createdAt,value
2023-01-08T00:00:20.861Z,119.75
2023-01-08T00:04:42.705Z,113.60
2023-01-08T00:08:45.226Z,108.88
2023-01-08T00:12:46.870Z,105.53
2023-01-08T00:16:48.833Z,98.25
2023-01-08T00:20:50.838Z,106.85
2023-01-08T00:24:52.586Z,99.50
2023-01-08T00:28:54.559Z,110.20
2023-01-08T00:32:56.212Z,102.45
2023-01-08T00:36:59.232Z,91.72
2023-01-08T00:41:00.972Z,109.70
2023-01-08T00:45:03.031Z,98.38
2023-01-08T00:49:04.978Z,101.18
2023-01-08T00:53:06.899Z,85.32
2023-01-08T00:57:08.727Z,89.80
2023-01-08T01:01:13.153Z,94.00
2023-01-08T01:05:16.919Z,91.47
2023-01-08T01:09:18.855Z,88.60
2023-01-08T01:13:20.569Z,88.53
2023-01-08T01:17:22.603Z,88.00
2023-01-08T01:21:27.675Z,84.35
2023-01-08T01:25:29.389Z,81.38
2023-01-08T01:29:31.473Z,87.40
2023-01-08T01:33:33.301Z,84.15
2023-01-08T01:37:35.252Z,82.50
2023-01-08T01:41:42.961Z,72.22
2023-01-08T01:45:44.986Z,75.68
2023-01-08T01:49:55.570Z,76.82
2023-01-08T01:53:58.151Z,72.85
2023-01-08T01:58:21.343Z,79.55
2023-01-08T02:02:23.508Z,72.78
2023-01-08T02:06:39.037Z,76.13
2023-01-08T02:11:09.039Z,76.53
2023-01-08T02:15:15.316Z,72.03
2023-01-08T02:19:34.292Z,66.10
2023-01-08T02:24:02.455Z,68.25
2023-01-08T02:28:14.114Z,62.23
2023-01-08T02:32:16.397Z,53.42
2023-01-08T02:36:28.151Z,62.80
2023-01-08T02:40:35.554Z,65.13
2023-01-08T02:44:45.729Z,63.05
2023-01-08T02:49:01.499Z,57.83
2023-01-08T02:53:11.671Z,52.65
2023-01-08T02:57:17.066Z,57.80
2023-01-08T03:01:21.937Z,62.00
2023-01-08T03:05:26.503Z,62.38
2023-01-08T03:09:29.110Z,53.22
2023-01-08T03:13:40.133Z,54.45
2023-01-08T03:17:46.667Z,65.10
2023-01-08T03:21:51.563Z,56.10
2023-01-08T03:25:53.272Z,56.38
2023-01-08T03:29:58.670Z,54.45
2023-01-08T03:34:02.834Z,52.05
2023-01-08T03:38:11.773Z,52.70
2023-01-08T03:42:16.587Z,63.05
2023-01-08T03:46:31.562Z,47.78
2023-01-08T03:50:34.165Z,49.92
2023-01-08T03:54:36.961Z,44.55
2023-01-08T03:58:39.000Z,38.90
2023-01-08T04:02:42.220Z,49.72
2023-01-08T04:06:44.389Z,39.88
2023-01-08T04:10:46.080Z,48.92
2023-01-08T04:14:48.072Z,48.75
2023-01-08T04:18:50.150Z,38.65
2023-01-08T04:22:52.378Z,35.20
2023-01-08T04:26:54.018Z,41.85
2023-01-08T04:30:56.217Z,42.20
2023-01-08T04:34:57.883Z,42.20
2023-01-08T04:38:59.835Z,41.90
2023-01-08T04:43:01.579Z,34.80
2023-01-08T04:47:03.503Z,34.80
2023-01-08T04:51:05.477Z,34.15
2023-01-08T04:55:07.763Z,40.08
2023-01-08T04:59:09.722Z,32.70
2023-01-08T05:03:11.532Z,39.10
2023-01-08T05:07:13.632Z,34.42
2023-01-08T05:11:15.410Z,38.33
2023-01-08T05:15:17.712Z,34.70
2023-01-08T05:19:19.479Z,35.53
2023-01-08T05:23:21.401Z,33.17
2023-01-08T05:27:23.077Z,31.88
2023-01-08T05:31:25.154Z,34.38
2023-01-08T05:35:26.805Z,36.85
2023-01-08T05:39:28.719Z,34.97
2023-01-08T05:43:31.457Z,36.25
2023-01-08T05:47:34.611Z,38.58
2023-01-08T05:51:36.377Z,43.17
2023-01-08T05:55:38.335Z,33.85
2023-01-08T05:59:39.983Z,37.38
2023-01-08T06:03:42.175Z,39.42
2023-01-08T06:07:43.932Z,39.58
2023-01-08T06:11:46.292Z,36.10
2023-01-08T06:15:48.130Z,39.03
2023-01-08T06:19:50.076Z,33.63
2023-01-08T06:23:52.001Z,34.67
2023-01-08T06:27:53.692Z,40.30
2023-01-08T06:31:56.299Z,32.83
2023-01-08T06:36:02.573Z,35.10
2023-01-08T06:40:04.926Z,32.38
2023-01-08T06:44:06.865Z,39.15
2023-01-08T06:48:08.876Z,28.50
2023-01-08T06:52:10.894Z,32.15
2023-01-08T06:56:13.533Z,37.03
2023-01-08T07:00:17.024Z,33.78
2023-01-08T07:04:19.452Z,38.28
2023-01-08T07:08:21.565Z,38.15
2023-01-08T07:12:24.615Z,37.83
2023-01-08T07:16:26.670Z,41.58
2023-01-08T07:20:28.671Z,44.85
2023-01-08T07:24:30.485Z,45.55
2023-01-08T07:28:32.402Z,45.58
2023-01-08T07:32:34.161Z,41.38
2023-01-08T07:36:36.168Z,41.05
2023-01-08T07:40:39.495Z,37.35
2023-01-08T07:44:41.307Z,43.33
2023-01-08T07:48:43.465Z,39.65
2023-01-08T07:52:45.415Z,38.70
2023-01-08T07:56:47.102Z,39.13
2023-01-08T08:00:49.022Z,44.33
2023-01-08T08:04:50.733Z,43.13
2023-01-08T08:08:52.724Z,41.20
2023-01-08T08:12:54.629Z,43.00
2023-01-08T08:16:56.341Z,43.88
2023-01-08T08:20:58.410Z,55.55
2023-01-08T08:25:00.047Z,42.17
2023-01-08T08:29:02.190Z,42.25
2023-01-08T08:33:06.287Z,44.92
2023-01-08T08:37:08.957Z,45.58
2023-01-08T08:41:10.977Z,48.47
2023-01-08T08:45:13.237Z,44.10
2023-01-08T08:49:14.895Z,46.10
2023-01-08T08:53:16.836Z,42.97
2023-01-08T08:57:18.879Z,45.67
2023-01-08T09:01:20.604Z,42.47
2023-01-08T09:05:22.636Z,50.67
2023-01-08T09:09:24.365Z,40.92
2023-01-08T09:13:26.365Z,41.35
2023-01-08T09:17:28.076Z,43.03
2023-01-08T09:21:30.081Z,51.72
2023-01-08T09:25:31.786Z,45.13
2023-01-08T09:29:33.711Z,50.17
2023-01-08T09:33:35.492Z,41.40
2023-01-08T09:37:37.395Z,48.33
2023-01-08T09:41:43.133Z,46.00
2023-01-08T09:45:49.329Z,41.95
2023-01-08T09:49:55.234Z,39.78
2023-01-08T09:53:57.691Z,42.47
2023-01-08T09:58:03.037Z,36.83
2023-01-08T10:02:13.827Z,38.30
2023-01-08T10:06:17.116Z,42.33
2023-01-08T10:10:22.431Z,41.08
2023-01-08T10:14:29.076Z,43.28
2023-01-08T10:18:32.885Z,39.88
2023-01-08T10:22:34.812Z,39.97
2023-01-08T10:26:38.702Z,54.13
2023-01-08T10:30:40.721Z,45.13
2023-01-08T10:34:49.159Z,47.47
2023-01-08T10:38:56.219Z,45.83
2023-01-08T10:43:07.951Z,46.78
2023-01-08T10:47:18.357Z,48.38
2023-01-08T10:51:23.772Z,48.58
2023-01-08T10:55:25.638Z,45.63
2023-01-08T10:59:27.741Z,47.72
2023-01-08T11:03:32.391Z,45.60
2023-01-08T11:07:37.485Z,46.17
2023-01-08T11:11:39.558Z,45.42
2023-01-08T11:15:41.991Z,44.80
2023-01-08T11:19:44.043Z,41.70
2023-01-08T11:23:46.277Z,44.35
2023-01-08T11:27:50.809Z,40.08
2023-01-08T11:32:09.876Z,45.85
2023-01-08T11:36:23.249Z,38.75
2023-01-08T11:40:30.997Z,37.47
2023-01-08T11:44:58.848Z,37.17
2023-01-08T11:49:12.863Z,40.50
2023-01-08T11:53:26.982Z,35.95
2023-01-08T11:57:46.874Z,42.20
2023-01-08T12:02:20.081Z,44.50
2023-01-08T12:06:43.292Z,38.85
2023-01-08T12:11:04.344Z,43.10
2023-01-08T12:15:20.997Z,43.00
2023-01-08T12:19:38.610Z,38.78
2023-01-08T12:24:01.782Z,42.00
2023-01-08T12:28:31.536Z,45.88
2023-01-08T12:32:42.108Z,43.88
2023-01-08T12:36:49.927Z,46.03
2023-01-08T12:41:01.620Z,59.38
2023-01-08T12:45:07.955Z,47.28
2023-01-08T12:49:14.707Z,51.85
2023-01-08T12:53:48.156Z,46.60
2023-01-08T12:58:30.529Z,51.45
2023-01-08T13:02:47.311Z,53.85
2023-01-08T13:06:51.727Z,54.13
2023-01-08T13:10:55.120Z,59.42
2023-01-08T13:14:57.531Z,53.35
2023-01-08T13:19:04.522Z,58.17
2023-01-08T13:23:06.863Z,55.63
2023-01-08T13:27:14.718Z,58.08
2023-01-08T13:31:24.480Z,51.93
2023-01-08T13:35:30.155Z,54.30
2023-01-08T13:39:38.936Z,55.78
2023-01-08T13:43:41.983Z,61.33
2023-01-08T13:47:46.292Z,60.60
2023-01-08T13:51:48.540Z,57.83
2023-01-08T13:55:57.553Z,56.83
2023-01-08T14:00:00.134Z,65.65
2023-01-08T14:04:02.331Z,67.93
2023-01-08T14:08:04.086Z,63.55
2023-01-08T14:12:06.385Z,66.78
2023-01-08T14:16:13.334Z,63.53
2023-01-08T14:20:28.873Z,82.75
2023-01-08T14:24:31.279Z,65.68
2023-01-08T14:28:33.274Z,71.93
2023-01-08T14:32:34.988Z,68.18
2023-01-08T14:36:37.020Z,70.50
2023-01-08T14:40:42.611Z,66.05
2023-01-08T14:44:46.089Z,71.43
2023-01-08T14:48:48.948Z,74.03
2023-01-08T14:52:52.989Z,72.45
2023-01-08T14:56:59.067Z,76.53
2023-01-08T15:01:05.529Z,67.30
2023-01-08T15:05:20.051Z,64.88
2023-01-08T15:09:23.607Z,68.15
2023-01-08T15:13:30.981Z,62.42
2023-01-08T15:17:33.103Z,58.88
2023-01-08T15:21:36.461Z,57.67
2023-01-08T15:25:38.178Z,55.45
2023-01-08T15:29:48.463Z,63.47
2023-01-08T15:33:50.657Z,61.55
2023-01-08T15:37:52.731Z,58.72
2023-01-08T15:42:13.473Z,65.18
2023-01-08T15:46:16.116Z,67.00
2023-01-08T15:50:20.317Z,58.13
2023-01-08T15:54:25.787Z,57.45
2023-01-08T15:58:27.830Z,57.15
2023-01-08T16:02:29.983Z,57.05
2023-01-08T16:06:32.005Z,66.00
2023-01-08T16:10:34.258Z,58.13
2023-01-08T16:14:38.079Z,58.90
2023-01-08T16:18:40.592Z,60.60
2023-01-08T16:22:42.742Z,64.25
2023-01-08T16:26:44.721Z,57.58
2023-01-08T16:30:46.685Z,58.60
2023-01-08T16:34:48.872Z,56.70
2023-01-08T16:38:50.613Z,59.97
2023-01-08T16:42:52.603Z,61.13
2023-01-08T16:46:55.600Z,61.53
2023-01-08T16:51:05.254Z,56.85
2023-01-08T16:55:08.120Z,58.53
2023-01-08T16:59:22.294Z,60.58
2023-01-08T17:03:25.449Z,63.50
2023-01-08T17:07:27.480Z,62.40
2023-01-08T17:11:29.119Z,65.20
2023-01-08T17:15:31.208Z,62.78
2023-01-08T17:19:33.426Z,73.63
2023-01-08T17:23:36.322Z,62.53
2023-01-08T17:27:38.288Z,64.18
2023-01-08T17:31:40.501Z,59.13
2023-01-08T17:35:42.533Z,64.57
2023-01-08T17:39:45.681Z,62.80
2023-01-08T17:43:47.640Z,65.40
2023-01-08T17:47:49.326Z,67.07
2023-01-08T17:51:53.329Z,69.70
2023-01-08T17:55:55.028Z,67.78
2023-01-08T17:59:58.287Z,70.55
2023-01-08T18:04:01.382Z,62.67
2023-01-08T18:08:03.300Z,69.28
2023-01-08T18:12:05.530Z,63.42
2023-01-08T18:16:10.825Z,75.38
2023-01-08T18:20:13.198Z,71.38
2023-01-08T18:24:15.561Z,66.75
2023-01-08T18:28:17.607Z,71.50
2023-01-08T18:32:25.489Z,77.43
2023-01-08T18:36:27.574Z,82.07
2023-01-08T18:40:30.051Z,74.80
2023-01-08T18:44:32.042Z,73.75
2023-01-08T18:48:35.505Z,69.95
2023-01-08T18:52:39.641Z,74.70
2023-01-08T18:56:42.114Z,78.43
2023-01-08T19:00:43.895Z,82.70
2023-01-08T19:04:46.108Z,81.18
2023-01-08T19:08:48.184Z,80.65
2023-01-08T19:12:50.780Z,89.78
2023-01-08T19:16:53.180Z,85.03
2023-01-08T19:20:56.139Z,96.22
2023-01-08T19:24:58.686Z,92.32
2023-01-08T19:29:00.706Z,85.88
2023-01-08T19:33:02.717Z,84.88
2023-01-08T19:37:04.789Z,79.50
2023-01-08T19:41:26.700Z,82.43
2023-01-08T19:45:28.673Z,90.97
2023-01-08T19:49:30.862Z,84.00
2023-01-08T19:53:32.836Z,90.82
2023-01-08T19:57:34.956Z,92.90
2023-01-08T20:01:37.141Z,96.97
2023-01-08T20:05:42.485Z,100.97
2023-01-08T20:09:44.527Z,109.93
2023-01-08T20:13:46.709Z,87.32
2023-01-08T20:17:48.441Z,88.03
2023-01-08T20:21:50.527Z,86.82
2023-01-08T20:25:52.698Z,102.05
2023-01-08T20:29:54.432Z,85.57
2023-01-08T20:33:58.561Z,84.57
2023-01-08T20:38:00.485Z,97.05
2023-01-08T20:42:04.556Z,93.57
2023-01-08T20:46:09.976Z,89.00
2023-01-08T20:50:19.464Z,89.07
2023-01-08T20:54:22.233Z,91.72
2023-01-08T20:58:23.843Z,90.53
2023-01-08T21:02:25.894Z,94.10
2023-01-08T21:06:29.899Z,98.72
2023-01-08T21:10:32.343Z,107.10
2023-01-08T21:14:34.415Z,90.82
2023-01-08T21:18:36.975Z,104.63
2023-01-08T21:22:38.642Z,106.38
2023-01-08T21:26:40.712Z,100.88
2023-01-08T21:30:42.708Z,101.15
2023-01-08T21:34:45.436Z,95.75
2023-01-08T21:38:47.782Z,100.13
2023-01-08T21:43:08.034Z,99.18
2023-01-08T21:47:16.554Z,101.30
2023-01-08T21:51:37.617Z,99.32
2023-01-08T21:55:41.989Z,90.25
2023-01-08T21:59:44.219Z,103.20
2023-01-08T22:03:46.025Z,99.55
2023-01-08T22:07:48.059Z,105.88
2023-01-08T22:11:50.478Z,109.75
2023-01-08T22:16:08.579Z,102.80
2023-01-08T22:20:11.739Z,104.20
2023-01-08T22:24:13.761Z,109.10
2023-01-08T22:28:15.733Z,110.22
2023-01-08T22:32:17.868Z,120.25
2023-01-08T22:36:20.113Z,112.82
2023-01-08T22:40:22.059Z,109.47
2023-01-08T22:44:24.250Z,107.05
2023-01-08T22:48:27.214Z,117.70
2023-01-08T22:52:29.218Z,114.00
2023-01-08T22:56:31.221Z,100.75
2023-01-08T23:00:33.011Z,113.65
2023-01-08T23:04:35.048Z,103.70
2023-01-08T23:08:38.004Z,116.90
2023-01-08T23:12:39.851Z,113.05
2023-01-08T23:16:42.785Z,106.30
2023-01-08T23:20:44.732Z,110.75
2023-01-08T23:24:46.732Z,109.75
2023-01-08T23:28:50.308Z,103.00
2023-01-08T23:32:51.963Z,108.10
2023-01-08T23:36:53.978Z,112.13
2023-01-08T23:40:56.654Z,107.75
2023-01-08T23:44:58.387Z,116.15
2023-01-08T23:49:00.716Z,96.15
2023-01-08T23:53:02.915Z,108.85
2023-01-08T23:57:06.548Z,96.68
